createdAt,value
2018-10-05T00:00:07.362Z,12.30
2018-10-05T00:01:07.347Z,11.80
2018-10-05T00:02:07.336Z,15.30
2018-10-05T00:03:07.323Z,10.20
2018-10-05T00:04:07.313Z,10.80
2018-10-05T00:05:07.302Z,10.60
2018-10-05T00:06:07.295Z,10.60
2018-10-05T00:07:07.278Z,13.90
2018-10-05T00:08:07.268Z,12.60
2018-10-05T00:09:07.257Z,11.90
2018-10-05T00:10:07.247Z,10.50
2018-10-05T00:11:07.234Z,13.50
2018-10-05T00:12:07.223Z,11.20
2018-10-05T00:13:07.211Z,12.30
2018-10-05T00:14:07.201Z,11.40
2018-10-05T00:15:07.190Z,10.40
2018-10-05T00:16:07.178Z,11.30
2018-10-05T00:17:07.167Z,8.90
2018-10-05T00:18:07.156Z,8.70
2018-10-05T00:19:07.145Z,9.90
2018-10-05T00:20:07.132Z,9.60
2018-10-05T00:21:07.123Z,11.80
2018-10-05T00:22:07.109Z,9.00
2018-10-05T00:23:07.098Z,8.70
2018-10-05T00:24:07.086Z,9.90
2018-10-05T00:25:07.078Z,9.70
2018-10-05T00:26:07.070Z,9.70
2018-10-05T00:27:07.053Z,10.60
2018-10-05T00:28:07.041Z,10.80
2018-10-05T00:29:07.030Z,7.90
2018-10-05T00:30:07.019Z,10.70
2018-10-05T00:31:07.007Z,11.20
2018-10-05T00:32:06.995Z,9.70
2018-10-05T00:33:06.984Z,7.40
2018-10-05T00:34:06.974Z,9.30
2018-10-05T00:35:06.962Z,8.60
2018-10-05T00:36:06.950Z,9.00
2018-10-05T00:37:06.939Z,7.80
2018-10-05T00:38:07.018Z,9.80
2018-10-05T00:39:06.915Z,9.80
2018-10-05T00:40:06.905Z,9.70
2018-10-05T00:41:06.893Z,8.50
2018-10-05T00:42:06.883Z,8.70
2018-10-05T00:43:06.870Z,7.40
2018-10-05T00:44:06.859Z,7.90
2018-10-05T00:45:06.848Z,10.60
2018-10-05T00:46:06.840Z,7.20
2018-10-05T00:47:06.826Z,8.70
2018-10-05T00:48:06.812Z,7.70
2018-10-05T00:49:06.805Z,9.80
2018-10-05T00:50:06.791Z,8.10
2018-10-05T00:51:06.779Z,10.00
2018-10-05T00:52:06.767Z,9.90
2018-10-05T00:53:06.877Z,8.70
2018-10-05T00:54:06.747Z,9.40
2018-10-05T00:55:06.733Z,7.50
2018-10-05T00:56:06.721Z,8.20
2018-10-05T00:57:06.710Z,9.30
2018-10-05T00:58:06.699Z,9.90
2018-10-05T00:59:06.687Z,15.60
2018-10-05T01:00:06.675Z,9.50
2018-10-05T01:01:06.664Z,10.60
2018-10-05T01:02:06.653Z,13.10
2018-10-05T01:03:06.640Z,8.10
2018-10-05T01:04:06.629Z,8.90
2018-10-05T01:05:06.619Z,7.90
2018-10-05T01:06:06.606Z,7.70
2018-10-05T01:07:06.595Z,8.40
2018-10-05T01:08:06.583Z,8.00
2018-10-05T01:09:06.571Z,10.00
2018-10-05T01:10:06.561Z,10.60
2018-10-05T01:11:06.548Z,11.50
2018-10-05T01:12:06.536Z,7.50
2018-10-05T01:13:06.525Z,9.60
2018-10-05T01:14:06.515Z,8.20
2018-10-05T01:15:06.502Z,9.60
2018-10-05T01:16:06.490Z,10.20
2018-10-05T01:17:06.479Z,8.40
2018-10-05T01:18:06.467Z,9.90
2018-10-05T01:19:06.461Z,7.30
2018-10-05T01:20:06.444Z,10.40
2018-10-05T01:21:06.433Z,9.80
2018-10-05T01:22:06.421Z,10.30
2018-10-05T01:23:06.409Z,9.50
2018-10-05T01:24:06.398Z,7.80
2018-10-05T01:25:06.386Z,8.30
2018-10-05T01:26:06.374Z,10.00
2018-10-05T01:27:06.362Z,10.90
2018-10-05T01:28:06.352Z,9.60
2018-10-05T01:29:06.339Z,8.00
2018-10-05T01:30:06.328Z,11.80
2018-10-05T01:31:06.315Z,11.40
2018-10-05T01:32:06.304Z,12.10
2018-10-05T01:33:06.294Z,9.70
2018-10-05T01:34:06.281Z,10.40
2018-10-05T01:35:06.269Z,9.80
2018-10-05T01:36:06.258Z,11.50
2018-10-05T01:37:06.245Z,8.90
2018-10-05T01:38:06.234Z,9.60
2018-10-05T01:39:06.222Z,9.40
2018-10-05T01:40:06.210Z,11.60
2018-10-05T01:41:06.199Z,14.00
2018-10-05T01:42:06.188Z,13.30
2018-10-05T01:43:06.174Z,12.50
2018-10-05T01:44:06.163Z,14.40
2018-10-05T01:45:06.153Z,14.90
2018-10-05T01:46:06.140Z,13.60
2018-10-05T01:47:06.128Z,11.00
2018-10-05T01:48:06.117Z,14.40
2018-10-05T01:49:06.105Z,10.70
2018-10-05T01:50:06.093Z,14.60
2018-10-05T01:51:06.081Z,13.50
2018-10-05T01:52:06.070Z,10.90
2018-10-05T01:53:06.058Z,10.70
2018-10-05T01:54:06.047Z,13.50
2018-10-05T01:55:06.034Z,9.90
2018-10-05T01:56:06.023Z,11.70
2018-10-05T01:57:06.011Z,12.10
2018-10-05T01:58:05.999Z,11.50
2018-10-05T01:59:05.986Z,13.20
2018-10-05T02:00:05.980Z,9.90
2018-10-05T02:01:05.964Z,11.20
2018-10-05T02:02:05.952Z,15.40
2018-10-05T02:03:05.940Z,13.00
2018-10-05T02:04:05.929Z,12.30
2018-10-05T02:05:05.916Z,12.30
2018-10-05T02:06:05.904Z,12.00
2018-10-05T02:07:05.893Z,12.90
2018-10-05T02:08:05.880Z,12.50
2018-10-05T02:09:05.868Z,13.00
2018-10-05T02:10:05.857Z,10.60
2018-10-05T02:11:05.844Z,14.50
2018-10-05T02:12:05.833Z,14.20
2018-10-05T02:13:05.821Z,12.60
2018-10-05T02:14:05.810Z,11.80
2018-10-05T02:15:05.801Z,10.60
2018-10-05T02:16:05.785Z,10.90
2018-10-05T02:17:05.775Z,13.20
2018-10-05T02:18:05.761Z,15.20
2018-10-05T02:19:05.749Z,12.30
2018-10-05T02:20:05.737Z,11.00
2018-10-05T02:21:05.727Z,13.40
2018-10-05T02:22:05.714Z,12.70
2018-10-05T02:23:05.701Z,11.70
2018-10-05T02:24:05.691Z,11.40
2018-10-05T02:25:05.678Z,11.00
2018-10-05T02:26:05.666Z,11.20
2018-10-05T02:27:05.653Z,10.90
2018-10-05T02:28:05.642Z,15.80
2018-10-05T02:29:05.631Z,12.30
2018-10-05T02:30:05.619Z,11.30
2018-10-05T02:31:05.607Z,10.30
2018-10-05T02:32:05.594Z,10.80
2018-10-05T02:33:05.642Z,13.60
2018-10-05T02:34:05.570Z,9.10
2018-10-05T02:35:05.561Z,15.10
2018-10-05T02:36:05.547Z,14.60
2018-10-05T02:37:05.538Z,13.00
2018-10-05T02:38:05.523Z,14.80
2018-10-05T02:39:05.510Z,11.30
2018-10-05T02:40:05.498Z,9.70
2018-10-05T02:41:05.489Z,11.30
2018-10-05T02:42:05.474Z,11.40
2018-10-05T02:43:05.465Z,13.00
2018-10-05T02:44:05.450Z,10.50
2018-10-05T02:45:05.439Z,14.70
2018-10-05T02:46:05.426Z,9.70
2018-10-05T02:47:05.414Z,11.90
2018-10-05T02:48:05.402Z,11.40
2018-10-05T02:49:05.390Z,13.40
2018-10-05T02:50:05.378Z,13.60
2018-10-05T02:51:05.366Z,14.20
2018-10-05T02:52:05.354Z,15.30
2018-10-05T02:53:05.342Z,14.20
2018-10-05T02:54:05.330Z,12.30
2018-10-05T02:55:05.318Z,13.30
2018-10-05T02:56:05.306Z,12.80
2018-10-05T02:57:05.294Z,10.00
2018-10-05T02:58:05.281Z,12.00
2018-10-05T02:59:05.269Z,12.80
2018-10-05T03:00:05.257Z,11.50
2018-10-05T03:01:05.245Z,10.70
2018-10-05T03:02:05.262Z,11.00
2018-10-05T03:03:05.221Z,10.60
2018-10-05T03:04:05.209Z,13.70
2018-10-05T03:05:05.198Z,10.20
2018-10-05T03:06:05.185Z,12.30
2018-10-05T03:07:05.172Z,11.20
2018-10-05T03:08:05.161Z,11.40
2018-10-05T03:09:05.148Z,13.00
2018-10-05T03:10:05.136Z,10.30
2018-10-05T03:11:05.124Z,12.60
2018-10-05T03:12:05.112Z,10.30
2018-10-05T03:13:05.099Z,11.00
2018-10-05T03:14:05.088Z,9.00
2018-10-05T03:15:05.075Z,13.70
2018-10-05T03:16:05.064Z,9.10
2018-10-05T03:17:05.052Z,9.30
2018-10-05T03:18:05.040Z,16.20
2018-10-05T03:19:05.029Z,11.60
2018-10-05T03:20:05.014Z,10.20
2018-10-05T03:21:05.002Z,9.40
2018-10-05T03:22:04.990Z,11.30
2018-10-05T03:23:04.977Z,11.50
2018-10-05T03:24:04.966Z,9.70
2018-10-05T03:25:04.955Z,9.90
2018-10-05T03:26:04.941Z,12.10
2018-10-05T03:27:04.929Z,13.00
2018-10-05T03:28:04.917Z,13.10
2018-10-05T03:29:04.905Z,12.70
2018-10-05T03:30:04.893Z,12.00
2018-10-05T03:31:04.881Z,10.10
2018-10-05T03:32:04.870Z,10.60
2018-10-05T03:33:04.856Z,10.10
2018-10-05T03:34:04.843Z,10.50
2018-10-05T03:35:04.831Z,10.90
2018-10-05T03:36:04.818Z,13.70
2018-10-05T03:37:04.807Z,15.70
2018-10-05T03:38:04.795Z,12.80
2018-10-05T03:39:04.781Z,14.00
2018-10-05T03:40:04.770Z,7.10
2018-10-05T03:41:04.757Z,14.20
2018-10-05T03:42:04.803Z,9.70
2018-10-05T03:43:04.732Z,11.60
2018-10-05T03:44:04.719Z,14.10
2018-10-05T03:45:04.710Z,11.50
2018-10-05T03:46:04.897Z,11.20
2018-10-05T03:47:04.683Z,12.00
2018-10-05T03:48:04.671Z,10.40
2018-10-05T03:49:04.659Z,13.40
2018-10-05T03:50:04.647Z,10.20
2018-10-05T03:51:04.635Z,15.70
2018-10-05T03:52:04.622Z,12.30
2018-10-05T03:53:04.611Z,11.20
2018-10-05T03:54:04.599Z,12.10
2018-10-05T03:55:04.586Z,12.80
2018-10-05T03:56:04.574Z,14.60
2018-10-05T03:57:04.562Z,12.90
2018-10-05T03:58:04.556Z,10.20
2018-10-05T03:59:04.537Z,14.10
2018-10-05T04:00:04.526Z,9.40
2018-10-05T04:01:04.512Z,13.00
2018-10-05T04:02:04.500Z,11.50
2018-10-05T04:03:04.487Z,11.30
2018-10-05T04:04:04.473Z,11.50
2018-10-05T04:05:04.463Z,10.50
2018-10-05T04:06:04.451Z,13.80
2018-10-05T04:07:04.438Z,10.30
2018-10-05T04:08:04.425Z,9.50
2018-10-05T04:09:04.413Z,11.00
2018-10-05T04:10:04.401Z,8.70
2018-10-05T04:11:04.387Z,10.20
2018-10-05T04:12:04.375Z,15.20
2018-10-05T04:13:04.364Z,9.80
2018-10-05T04:14:04.351Z,10.30
2018-10-05T04:15:04.337Z,11.90
2018-10-05T04:16:04.325Z,10.80
2018-10-05T04:17:04.314Z,13.40
2018-10-05T04:18:04.303Z,9.60
2018-10-05T04:19:04.289Z,11.90
2018-10-05T04:20:04.279Z,12.20
2018-10-05T04:21:04.263Z,10.30
2018-10-05T04:22:04.253Z,9.70
2018-10-05T04:23:04.239Z,11.20
2018-10-05T04:24:04.226Z,10.90
2018-10-05T04:25:04.214Z,10.60
2018-10-05T04:26:04.202Z,10.70
2018-10-05T04:27:04.227Z,9.60
2018-10-05T04:28:04.177Z,11.70
2018-10-05T04:29:04.164Z,11.50
2018-10-05T04:30:04.153Z,11.10
2018-10-05T04:31:04.139Z,12.10
2018-10-05T04:32:04.145Z,13.10
2018-10-05T04:33:04.116Z,11.20
2018-10-05T04:34:04.104Z,13.10
2018-10-05T04:35:04.091Z,10.90
2018-10-05T04:36:04.077Z,12.20
2018-10-05T04:37:04.066Z,11.60
2018-10-05T04:38:04.054Z,12.50
2018-10-05T04:39:04.041Z,11.10
2018-10-05T04:40:04.028Z,12.10
2018-10-05T04:41:04.038Z,12.70
2018-10-05T04:42:04.004Z,10.50
2018-10-05T04:43:03.990Z,17.40
2018-10-05T04:44:03.980Z,14.30
2018-10-05T04:45:03.965Z,12.20
2018-10-05T04:46:03.952Z,10.60
2018-10-05T04:47:03.940Z,13.20
2018-10-05T04:48:03.928Z,11.20
2018-10-05T04:49:03.917Z,12.70
2018-10-05T04:50:03.903Z,10.30
2018-10-05T04:51:03.889Z,11.80
2018-10-05T04:52:03.877Z,13.70
2018-10-05T04:53:03.865Z,11.80
2018-10-05T04:54:03.853Z,13.40
2018-10-05T04:55:03.841Z,14.60
2018-10-05T04:56:03.829Z,13.00
2018-10-05T04:57:03.816Z,9.60
2018-10-05T04:58:03.804Z,10.90
2018-10-05T04:59:03.790Z,14.50
2018-10-05T05:00:03.781Z,14.40
2018-10-05T05:01:03.764Z,12.40
2018-10-05T05:02:03.752Z,12.30
2018-10-05T05:03:03.741Z,9.00
2018-10-05T05:04:03.726Z,15.70
2018-10-05T05:05:03.715Z,15.30
2018-10-05T05:06:03.701Z,13.20
2018-10-05T05:07:03.689Z,14.50
2018-10-05T05:08:03.677Z,12.30
2018-10-05T05:09:03.665Z,10.10
2018-10-05T05:10:03.652Z,12.10
2018-10-05T05:11:03.640Z,14.10
2018-10-05T05:12:03.630Z,16.10
2018-10-05T05:13:03.614Z,12.20
2018-10-05T05:14:03.601Z,14.10
2018-10-05T05:15:03.589Z,13.30
2018-10-05T05:16:03.575Z,11.70
2018-10-05T05:17:03.564Z,12.80
2018-10-05T05:18:03.551Z,13.20
2018-10-05T05:19:03.541Z,14.40
2018-10-05T05:20:03.526Z,18.40
2018-10-05T05:21:03.513Z,13.50
2018-10-05T05:22:03.500Z,13.30
2018-10-05T05:23:03.488Z,13.00
2018-10-05T05:24:03.474Z,16.70
2018-10-05T05:25:03.463Z,14.10
2018-10-05T05:26:03.450Z,14.50
2018-10-05T05:27:03.440Z,16.10
2018-10-05T05:28:03.424Z,14.00
2018-10-05T05:29:03.412Z,16.40
2018-10-05T05:30:03.402Z,13.70
2018-10-05T05:31:03.386Z,13.30
2018-10-05T05:32:03.375Z,18.80
2018-10-05T05:33:03.362Z,17.30
2018-10-05T05:34:03.376Z,14.90
2018-10-05T05:35:03.336Z,14.70
2018-10-05T05:36:03.323Z,18.60
2018-10-05T05:37:03.310Z,18.00
2018-10-05T05:38:03.301Z,14.60
2018-10-05T05:39:03.285Z,16.70
2018-10-05T05:40:03.302Z,15.00
2018-10-05T05:41:03.259Z,16.20
2018-10-05T05:42:03.248Z,19.10
2018-10-05T05:43:03.235Z,13.40
2018-10-05T05:44:03.222Z,14.50
2018-10-05T05:45:03.210Z,14.10
2018-10-05T05:46:03.197Z,14.80
2018-10-05T05:47:03.184Z,12.90
2018-10-05T05:48:03.171Z,11.40
2018-10-05T05:49:03.160Z,12.60
2018-10-05T05:50:03.148Z,11.90
2018-10-05T05:51:03.134Z,13.10
2018-10-05T05:52:03.121Z,14.40
2018-10-05T05:53:03.109Z,12.50
2018-10-05T05:54:03.117Z,16.80
2018-10-05T05:55:03.087Z,17.00
2018-10-05T05:56:03.070Z,17.10
2018-10-05T05:57:03.058Z,14.70
2018-10-05T05:58:03.045Z,15.00
2018-10-05T05:59:03.032Z,16.50
2018-10-05T06:00:03.020Z,16.70
2018-10-05T06:01:03.027Z,17.30
2018-10-05T06:02:02.994Z,17.70
2018-10-05T06:03:02.982Z,16.00
2018-10-05T06:04:02.969Z,17.30
2018-10-05T06:05:02.958Z,18.00
2018-10-05T06:06:02.944Z,13.20
2018-10-05T06:07:02.931Z,16.00
2018-10-05T06:08:02.930Z,14.80
2018-10-05T06:09:02.930Z,10.80
2018-10-05T06:10:02.894Z,14.50
2018-10-05T06:11:02.881Z,13.20
2018-10-05T06:12:02.869Z,15.20
2018-10-05T06:13:02.856Z,15.10
2018-10-05T06:14:02.844Z,11.70
2018-10-05T06:15:02.832Z,15.60
2018-10-05T06:16:02.898Z,11.20
2018-10-05T06:17:02.806Z,13.60
2018-10-05T06:18:02.794Z,15.00
2018-10-05T06:19:02.780Z,17.40
2018-10-05T06:20:02.768Z,14.40
2018-10-05T06:21:02.755Z,15.60
2018-10-05T06:22:02.933Z,13.50
2018-10-05T06:23:02.730Z,11.90
2018-10-05T06:24:02.718Z,12.20
2018-10-05T06:25:02.706Z,15.00
2018-10-05T06:26:02.693Z,14.70
2018-10-05T06:27:02.680Z,15.20
2018-10-05T06:28:02.668Z,17.00
2018-10-05T06:29:02.656Z,17.60
2018-10-05T06:30:02.644Z,13.50
2018-10-05T06:31:02.767Z,12.00
2018-10-05T06:32:02.617Z,16.60
2018-10-05T06:33:02.616Z,15.50
2018-10-05T06:34:02.593Z,15.10
2018-10-05T06:35:02.580Z,17.00
2018-10-05T06:36:02.568Z,18.90
2018-10-05T06:37:02.556Z,16.60
2018-10-05T06:38:02.559Z,14.70
2018-10-05T06:39:02.560Z,13.50
2018-10-05T06:40:02.519Z,16.50
2018-10-05T06:41:02.519Z,16.90
2018-10-05T06:42:02.604Z,17.80
2018-10-05T06:43:02.481Z,15.00
2018-10-05T06:44:02.499Z,19.50
2018-10-05T06:45:02.457Z,20.30
2018-10-05T06:46:02.447Z,18.40
2018-10-05T06:47:02.431Z,16.60
2018-10-05T06:48:02.421Z,14.50
2018-10-05T06:49:02.408Z,18.60
2018-10-05T06:50:02.396Z,16.10
2018-10-05T06:51:02.383Z,16.40
2018-10-05T06:52:02.371Z,17.80
2018-10-05T06:53:02.360Z,15.40
2018-10-05T06:54:02.347Z,19.90
2018-10-05T06:55:02.334Z,15.70
2018-10-05T06:56:02.323Z,15.00
2018-10-05T06:57:02.311Z,15.10
2018-10-05T06:58:02.298Z,19.80
2018-10-05T06:59:02.285Z,22.00
2018-10-05T07:00:02.276Z,18.10
2018-10-05T07:01:02.262Z,16.50
2018-10-05T07:02:02.254Z,17.00
2018-10-05T07:03:02.237Z,23.00
2018-10-05T07:04:02.227Z,14.60
2018-10-05T07:05:02.216Z,17.50
2018-10-05T07:06:02.207Z,18.10
2018-10-05T07:07:02.190Z,16.60
2018-10-05T07:08:02.250Z,21.50
2018-10-05T07:09:02.167Z,17.40
2018-10-05T07:10:02.155Z,20.40
2018-10-05T07:11:02.144Z,19.00
2018-10-05T07:12:02.133Z,19.30
2018-10-05T07:13:02.129Z,17.30
2018-10-05T07:14:02.110Z,17.90
2018-10-05T07:15:02.097Z,18.70
2018-10-05T07:16:02.088Z,16.40
2018-10-05T07:17:02.158Z,18.30
2018-10-05T07:18:02.062Z,18.90
2018-10-05T07:19:02.050Z,19.90
2018-10-05T07:20:02.039Z,16.70
2018-10-05T07:21:02.033Z,18.60
2018-10-05T07:22:02.018Z,15.60
2018-10-05T07:23:02.012Z,18.60
2018-10-05T07:24:01.993Z,21.20
2018-10-05T07:25:01.982Z,15.80
2018-10-05T07:26:01.971Z,15.20
2018-10-05T07:27:01.958Z,14.80
2018-10-05T07:28:02.025Z,17.20
2018-10-05T07:29:01.936Z,14.90
2018-10-05T07:30:01.926Z,17.00
2018-10-05T07:31:01.914Z,15.10
2018-10-05T07:32:01.938Z,17.50
2018-10-05T07:33:01.892Z,21.30
2018-10-05T07:34:01.881Z,19.90
2018-10-05T07:35:01.869Z,16.80
2018-10-05T07:36:01.865Z,18.70
2018-10-05T07:37:01.868Z,17.90
2018-10-05T07:38:01.837Z,20.50
2018-10-05T07:39:01.826Z,19.10
2018-10-05T07:40:01.815Z,17.60
2018-10-05T07:41:01.804Z,18.90
2018-10-05T07:42:01.793Z,16.00
2018-10-05T07:43:01.799Z,17.70
2018-10-05T07:44:01.771Z,16.30
2018-10-05T07:45:01.763Z,18.00
2018-10-05T07:46:01.751Z,16.30
2018-10-05T07:47:01.739Z,15.00
2018-10-05T07:48:01.727Z,17.40
2018-10-05T07:49:01.716Z,25.10
2018-10-05T07:50:01.707Z,16.20
2018-10-05T07:51:01.695Z,19.70
2018-10-05T07:52:01.684Z,15.70
2018-10-05T07:53:01.673Z,19.90
2018-10-05T07:54:01.668Z,16.60
2018-10-05T07:55:01.652Z,19.00
2018-10-05T07:56:01.644Z,15.00
2018-10-05T07:57:01.630Z,16.30
2018-10-05T07:58:01.624Z,18.50
2018-10-05T07:59:01.608Z,16.40
2018-10-05T08:00:01.599Z,14.00
2018-10-05T08:01:01.588Z,15.90
2018-10-05T08:02:01.579Z,15.70
2018-10-05T08:03:01.566Z,18.30
2018-10-05T08:04:01.556Z,20.40
2018-10-05T08:05:01.547Z,17.20
2018-10-05T08:06:01.536Z,17.80
2018-10-05T08:07:01.524Z,12.50
2018-10-05T08:08:01.514Z,15.70
2018-10-05T08:09:01.506Z,18.30
2018-10-05T08:10:01.496Z,16.70
2018-10-05T08:11:01.483Z,16.10
2018-10-05T08:12:01.473Z,17.60
2018-10-05T08:13:01.464Z,15.60
2018-10-05T08:14:01.453Z,16.40
2018-10-05T08:15:01.446Z,14.80
2018-10-05T08:16:01.432Z,19.90
2018-10-05T08:17:01.422Z,20.40
2018-10-05T08:18:01.412Z,16.20
2018-10-05T08:19:01.401Z,14.80
2018-10-05T08:20:01.393Z,15.50
2018-10-05T08:21:01.420Z,19.40
2018-10-05T08:22:01.372Z,15.40
2018-10-05T08:23:01.363Z,22.70
2018-10-05T08:24:01.351Z,17.30
2018-10-05T08:25:01.341Z,17.30
2018-10-05T08:26:01.331Z,17.50
2018-10-05T08:27:01.392Z,15.20
2018-10-05T08:28:01.478Z,16.70
2018-10-05T08:29:01.305Z,15.40
2018-10-05T08:30:01.293Z,12.90
2018-10-05T08:31:01.283Z,12.90
2018-10-05T08:32:01.272Z,14.10
2018-10-05T08:33:01.262Z,12.80
2018-10-05T08:34:01.285Z,21.10
2018-10-05T08:35:01.242Z,14.90
2018-10-05T08:36:01.233Z,16.80
2018-10-05T08:37:01.223Z,19.70
2018-10-05T08:38:01.214Z,13.70
2018-10-05T08:39:01.203Z,15.80
2018-10-05T08:40:01.277Z,17.80
2018-10-05T08:41:01.184Z,12.20
2018-10-05T08:42:01.176Z,16.20
2018-10-05T08:43:01.167Z,14.70
2018-10-05T08:44:01.156Z,12.30
2018-10-05T08:45:01.148Z,13.10
2018-10-05T08:46:01.309Z,12.60
2018-10-05T08:47:01.127Z,15.10
2018-10-05T08:48:01.119Z,18.10
2018-10-05T08:49:01.110Z,13.10
2018-10-05T08:50:01.105Z,15.30
2018-10-05T08:51:01.093Z,14.60
2018-10-05T08:52:01.164Z,17.00
2018-10-05T08:53:01.076Z,14.70
2018-10-05T08:54:01.066Z,17.90
2018-10-05T08:55:01.053Z,17.00
2018-10-05T08:56:01.041Z,14.00
2018-10-05T08:57:01.035Z,15.20
2018-10-05T08:58:01.023Z,16.10
2018-10-05T08:59:01.013Z,17.70
2018-10-05T09:00:01.072Z,13.70
2018-10-05T09:01:00.996Z,17.50
2018-10-05T09:02:00.987Z,14.00
2018-10-05T09:03:00.978Z,17.40
2018-10-05T09:04:00.968Z,14.40
2018-10-05T09:05:00.959Z,15.10
2018-10-05T09:06:00.951Z,19.10
2018-10-05T09:07:00.941Z,19.10
2018-10-05T09:08:00.934Z,17.30
2018-10-05T09:09:00.923Z,16.90
2018-10-05T09:10:00.917Z,20.50
2018-10-05T09:11:00.906Z,15.70
2018-10-05T09:12:00.896Z,16.40
2018-10-05T09:13:00.890Z,18.80
2018-10-05T09:14:00.881Z,19.30
2018-10-05T09:15:00.870Z,19.10
2018-10-05T09:16:00.862Z,17.00
2018-10-05T09:17:00.854Z,18.80
2018-10-05T09:18:00.898Z,15.20
2018-10-05T09:19:00.836Z,16.70
2018-10-05T09:20:00.828Z,17.80
2018-10-05T09:21:00.822Z,16.20
2018-10-05T09:22:00.812Z,19.10
2018-10-05T09:23:00.801Z,18.20
2018-10-05T09:24:00.855Z,19.40
2018-10-05T09:25:00.785Z,16.70
2018-10-05T09:26:00.777Z,19.30
2018-10-05T09:27:00.769Z,15.90
2018-10-05T09:28:00.760Z,18.50
2018-10-05T09:29:00.806Z,16.80
2018-10-05T09:30:00.744Z,20.40
2018-10-05T09:31:00.738Z,17.30
2018-10-05T09:32:00.727Z,16.40
2018-10-05T09:33:00.720Z,15.20
2018-10-05T09:34:00.711Z,18.10
2018-10-05T09:35:00.702Z,18.20
2018-10-05T09:36:00.694Z,17.00
2018-10-05T09:37:00.689Z,16.80
2018-10-05T09:38:00.738Z,18.50
2018-10-05T09:39:00.672Z,16.60
2018-10-05T09:40:00.665Z,16.60
2018-10-05T09:41:00.657Z,18.70
2018-10-05T09:42:00.649Z,19.30
2018-10-05T09:43:00.641Z,16.30
2018-10-05T09:44:00.631Z,18.90
2018-10-05T09:45:00.729Z,20.30
2018-10-05T09:46:00.615Z,22.10
2018-10-05T09:47:00.605Z,22.10
2018-10-05T09:48:00.598Z,23.50
2018-10-05T09:49:00.590Z,20.20
2018-10-05T09:50:00.582Z,19.10
2018-10-05T09:51:00.573Z,54.10
2018-10-05T09:52:00.634Z,37.60
2018-10-05T09:53:00.557Z,28.00
2018-10-05T09:54:00.550Z,26.10
2018-10-05T09:55:00.540Z,24.60
2018-10-05T09:56:00.533Z,20.10
2018-10-05T09:57:00.525Z,21.00
2018-10-05T09:58:00.517Z,17.70
2018-10-05T09:59:00.508Z,19.30
2018-10-05T10:00:00.613Z,17.80
2018-10-05T10:01:00.492Z,17.20
2018-10-05T10:02:00.485Z,17.70
2018-10-05T10:03:00.475Z,14.30
2018-10-05T10:04:00.468Z,17.50
2018-10-05T10:05:00.460Z,18.90
2018-10-05T10:06:00.456Z,16.90
2018-10-05T10:07:00.444Z,17.10
2018-10-05T10:08:00.447Z,14.40
2018-10-05T10:09:00.429Z,19.40
2018-10-05T10:10:00.421Z,17.10
2018-10-05T10:11:00.412Z,13.90
2018-10-05T10:12:00.404Z,15.70
2018-10-05T10:13:00.397Z,13.60
2018-10-05T10:14:00.485Z,18.20
2018-10-05T10:15:00.381Z,19.90
2018-10-05T10:16:00.373Z,14.90
2018-10-05T10:17:00.365Z,17.20
2018-10-05T10:18:00.358Z,14.40
2018-10-05T10:19:00.350Z,13.00
2018-10-05T10:20:00.342Z,16.00
2018-10-05T10:21:00.335Z,14.40
2018-10-05T10:22:00.328Z,16.30
2018-10-05T10:23:00.320Z,14.70
2018-10-05T10:24:00.311Z,14.40
2018-10-05T10:25:00.306Z,13.10
2018-10-05T10:26:00.297Z,13.70
2018-10-05T10:27:00.293Z,11.60
2018-10-05T10:28:00.422Z,13.30
2018-10-05T10:29:00.366Z,13.40
2018-10-05T10:30:00.268Z,14.40
2018-10-05T10:31:00.260Z,12.80
2018-10-05T10:32:00.253Z,12.90
2018-10-05T10:33:00.249Z,13.70
2018-10-05T10:34:00.239Z,14.90
2018-10-05T10:35:00.232Z,13.30
2018-10-05T10:36:00.225Z,14.10
2018-10-05T10:37:00.219Z,15.80
2018-10-05T10:38:00.212Z,12.30
2018-10-05T10:39:00.204Z,14.20
2018-10-05T10:40:00.310Z,13.80
2018-10-05T10:41:00.193Z,12.80
2018-10-05T10:42:00.184Z,13.70
2018-10-05T10:43:00.180Z,13.30
2018-10-05T10:44:00.173Z,14.10
2018-10-05T10:45:00.164Z,12.60
2018-10-05T10:46:00.158Z,12.90
2018-10-05T10:47:00.151Z,14.80
2018-10-05T10:48:00.192Z,15.00
2018-10-05T10:49:00.137Z,13.20
2018-10-05T10:50:00.131Z,12.10
2018-10-05T10:51:00.127Z,12.60
2018-10-05T10:52:00.118Z,14.40
2018-10-05T10:53:00.118Z,15.70
2018-10-05T10:54:00.151Z,15.50
2018-10-05T10:55:00.220Z,15.30
2018-10-05T10:56:00.092Z,14.30
2018-10-05T10:57:00.086Z,13.50
2018-10-05T10:58:00.079Z,14.20
2018-10-05T10:59:00.071Z,13.10
2018-10-05T11:00:00.066Z,15.30
2018-10-05T11:01:00.060Z,14.60
2018-10-05T11:02:00.053Z,15.60
2018-10-05T11:03:00.060Z,14.60
2018-10-05T11:04:00.102Z,15.00
2018-10-05T11:05:00.102Z,14.50
2018-10-05T11:06:00.029Z,14.30
2018-10-05T11:07:00.023Z,15.40
2018-10-05T11:08:00.030Z,14.40
2018-10-05T11:09:00.010Z,13.90
2018-10-05T11:10:00.007Z,15.60
2018-10-05T11:11:00.061Z,15.00
2018-10-05T11:11:59.990Z,15.10
2018-10-05T11:12:59.984Z,17.60
2018-10-05T11:13:59.979Z,15.40
2018-10-05T11:14:59.972Z,14.30
2018-10-05T11:15:59.966Z,18.30
2018-10-05T11:17:00.004Z,17.30
2018-10-05T11:17:59.957Z,19.30
2018-10-05T11:18:59.948Z,14.40
2018-10-05T11:19:59.943Z,19.00
2018-10-05T11:20:59.938Z,15.40
2018-10-05T11:21:59.932Z,15.20
2018-10-05T11:22:59.925Z,16.40
2018-10-05T11:23:59.919Z,14.80
2018-10-05T11:24:59.914Z,14.70
2018-10-05T11:25:59.907Z,16.70
2018-10-05T11:26:59.909Z,14.50
2018-10-05T11:27:59.896Z,16.30
2018-10-05T11:28:59.891Z,13.60
2018-10-05T11:29:59.886Z,15.70
2018-10-05T11:30:59.880Z,15.20
2018-10-05T11:31:59.873Z,15.10
2018-10-05T11:32:59.868Z,14.30
2018-10-05T11:33:59.866Z,14.70
2018-10-05T11:34:59.909Z,18.80
2018-10-05T11:35:59.850Z,14.80
2018-10-05T11:36:59.845Z,18.80
2018-10-05T11:37:59.846Z,16.50
2018-10-05T11:38:59.833Z,14.10
2018-10-05T11:39:59.828Z,15.00
2018-10-05T11:40:59.823Z,12.90
2018-10-05T11:41:59.818Z,13.90
2018-10-05T11:42:59.811Z,13.50
2018-10-05T11:43:59.806Z,13.10
2018-10-05T11:44:59.801Z,15.10
2018-10-05T11:45:59.796Z,13.70
2018-10-05T11:46:59.792Z,15.60
2018-10-05T11:47:59.784Z,19.40
2018-10-05T11:48:59.788Z,17.80
2018-10-05T11:49:59.774Z,14.40
2018-10-05T11:50:59.769Z,15.80
2018-10-05T11:51:59.762Z,14.00
2018-10-05T11:52:59.759Z,13.50
2018-10-05T11:53:59.753Z,14.20
2018-10-05T11:54:59.747Z,16.50
2018-10-05T11:55:59.742Z,16.60
2018-10-05T11:56:59.738Z,14.90
2018-10-05T11:57:59.736Z,15.30
2018-10-05T11:58:59.726Z,13.90
2018-10-05T11:59:59.726Z,16.60
2018-10-05T12:00:59.762Z,18.10
2018-10-05T12:01:59.713Z,14.40
2018-10-05T12:02:59.710Z,16.50
2018-10-05T12:03:59.700Z,12.90
2018-10-05T12:04:59.704Z,13.00
2018-10-05T12:05:59.691Z,14.90
2018-10-05T12:06:59.888Z,12.30
2018-10-05T12:07:59.681Z,12.50
2018-10-05T12:08:59.676Z,16.00
2018-10-05T12:09:59.675Z,16.10
2018-10-05T12:10:59.665Z,15.50
2018-10-05T12:11:59.660Z,12.20
2018-10-05T12:12:59.654Z,13.90
2018-10-05T12:13:59.651Z,12.90
2018-10-05T12:14:59.644Z,13.50
2018-10-05T12:15:59.639Z,15.60
2018-10-05T12:16:59.635Z,13.50
2018-10-05T12:17:59.630Z,12.40
2018-10-05T12:18:59.625Z,17.30
2018-10-05T12:19:59.741Z,12.80
2018-10-05T12:20:59.615Z,18.80
2018-10-05T12:21:59.612Z,13.90
2018-10-05T12:22:59.605Z,14.10
2018-10-05T12:23:59.600Z,13.50
2018-10-05T12:24:59.596Z,17.10
2018-10-05T12:25:59.592Z,11.50
2018-10-05T12:26:59.588Z,12.80
2018-10-05T12:27:59.584Z,10.70
2018-10-05T12:28:59.576Z,17.40
2018-10-05T12:29:59.628Z,13.40
2018-10-05T12:30:59.568Z,11.70
2018-10-05T12:31:59.561Z,11.70
2018-10-05T12:32:59.557Z,10.70
2018-10-05T12:33:59.552Z,10.70
2018-10-05T12:34:59.550Z,13.90
2018-10-05T12:35:59.543Z,11.50
2018-10-05T12:36:59.549Z,11.50
2018-10-05T12:37:59.534Z,11.30
2018-10-05T12:38:59.529Z,10.80
2018-10-05T12:39:59.523Z,12.70
2018-10-05T12:40:59.518Z,11.60
2018-10-05T12:41:59.538Z,12.20
2018-10-05T12:42:59.510Z,11.90
2018-10-05T12:43:59.505Z,14.00
2018-10-05T12:44:59.504Z,10.00
2018-10-05T12:45:59.497Z,9.80
2018-10-05T12:46:59.490Z,10.70
2018-10-05T12:47:59.486Z,11.40
2018-10-05T12:48:59.486Z,11.90
2018-10-05T12:49:59.488Z,10.90
2018-10-05T12:50:59.472Z,13.10
2018-10-05T12:51:59.467Z,9.30
2018-10-05T12:52:59.463Z,11.60
2018-10-05T12:53:59.465Z,11.50
2018-10-05T12:54:59.454Z,8.90